Time;durP1;ratioP1;P1;durP2;ratioP2;P2;SDS_P1;SDS_P2;PMS_P1;PMS_P2;Temp;Humidity;BMP_temperature;BMP_pressure;BME280_temperature;BME280_humidity;BME280_pressure;Samples;Min_cycle;Max_cycle;Signal;HPM_P1;HPM_P2
2021/10/20 00:00:09;;;;;;;;;;;;;;;12.37;63.95;97199.72;30001;983;1880;-74
2021/10/20 00:00:40;;;;;;;;;;;;;;;12.35;63.79;97196.47;30001;983;1863;-70
2021/10/20 00:01:10;;;;;;;;;;;;;;;12.32;63.94;97188.91;30001;983;1871;-70
2021/10/20 00:01:41;;;;;;;;;;;;;;;12.30;64.45;97194.66;30001;983;1876;-70
2021/10/20 00:02:12;;;;;;;;;;;;;;;12.30;63.93;97193.84;30001;983;1880;-71
2021/10/20 00:02:43;;;;;;;;;;;;;;;12.31;64.18;97190.00;30001;983;1876;-70
2021/10/20 00:03:14;;;;;;;;;;;;;;;12.33;64.03;97190.53;30001;983;1880;-72
2021/10/20 00:03:45;;;;;;;;;;;;;;;12.33;63.71;97188.63;30001;983;1863;-70
2021/10/20 00:04:17;;;;;;;;;;;;;;;12.34;63.82;97183.97;30001;982;1872;-70
2021/10/20 00:04:48;;;;;;;;;;;;;;;12.37;63.96;97188.84;30001;982;1876;-67
2021/10/20 00:05:19;;;;;;;;;;;;;;;12.42;63.45;97191.47;30001;982;1881;-73
2021/10/20 00:05:50;;;;;;;;;;;;;;;12.42;63.52;97186.03;30001;982;1863;-72
2021/10/20 00:06:21;;;;;;;;;;;;;;;12.42;63.95;97191.47;30001;982;1872;-74
2021/10/20 00:06:52;;;;;;;;;;;;;;;12.44;63.30;97185.75;30001;982;1877;-69
2021/10/20 00:07:23;;;;;;;;;;;;;;;12.41;63.28;97185.22;30001;982;1881;-68
2021/10/20 00:07:56;;;;;;;;;;;;;;;12.42;63.33;97180.59;30001;983;1863;-70
2021/10/20 00:08:27;;;;;;;;;;;;;;;12.41;63.70;97185.22;30001;983;1871;-70
2021/10/20 00:08:58;;;;;;;;;;;;;;;12.45;63.58;97184.62;30001;983;1876;-70
2021/10/20 00:09:29;;;;;;;;;;;;;;;12.42;63.53;97180.59;30001;983;1880;-70
2021/10/20 00:09:59;;;;;;;;;;;;;;;12.45;63.21;97187.34;30001;983;1863;-68
2021/10/20 00:10:30;;;;;;;;;;;;;;;12.45;63.25;97180.00;30001;983;1872;-68
2021/10/20 00:11:01;;;;;;;;;;;;;;;12.44;63.30;97188.47;30001;975;1891;-69
2021/10/20 00:11:32;;;;;;;;;;;;;;;12.41;63.37;97184.41;30001;983;1881;-73
2021/10/20 00:12:03;;;;;;;;;;;;;;;12.39;63.62;97182.00;30001;982;1876;-69
2021/10/20 00:12:35;;;;;;;;;;;;;;;12.40;63.55;97183.59;30001;982;1881;-65
2021/10/20 00:13:06;;;;;;;;;;;;;;;12.40;63.77;97182.81;30001;982;1876;-70
2021/10/20 00:13:37;;;;;;;;;;;;;;;12.37;63.90;97177.94;30001;982;1881;-73
2021/10/20 00:14:08;;;;;;;;;;;;;;;12.41;63.70;97181.69;30001;982;1877;-69
2021/10/20 00:14:39;;;;;;;;;;;;;;;12.40;63.64;97177.34;30001;983;1880;-67
2021/10/20 00:15:11;;;;;;;;;;;;;;;12.42;63.70;97180.59;30001;983;1863;-70
2021/10/20 00:15:43;;;;;;;;;;;;;;;12.41;63.51;97173.53;30001;983;1871;-61
2021/10/20 00:16:15;;;;;;;;;;;;;;;12.44;63.68;97177.56;30001;983;1876;-73
2021/10/20 00:16:49;;;;;;;;;;;;;;;12.41;63.31;97181.69;30001;983;1880;-68
2021/10/20 00:17:20;;;;;;;;;;;;;;;12.38;63.69;97180.37;30001;983;1863;-75
2021/10/20 00:17:51;;;;;;;;;;;;;;;12.38;63.54;97174.13;30001;983;1872;-70
2021/10/20 00:18:22;;;;;;;;;;;;;;;12.38;63.80;97180.37;30001;983;1876;-62
2021/10/20 00:18:52;;;;;;;;;;;;;;;12.36;63.68;97182.59;30001;983;1881;-71
2021/10/20 00:19:24;;;;;;;;;;;;;;;12.36;63.77;97176.34;30001;982;1863;-69
2021/10/20 00:19:58;;;;;;;;;;;;;;;12.36;63.55;97171.69;30001;982;1872;-69
2021/10/20 00:20:30;;;;;;;;;;;;;;;12.38;63.53;97168.69;30001;982;1863;-60
2021/10/20 00:21:04;;;;;;;;;;;;;;;12.36;63.40;97176.34;30001;982;1872;-70
2021/10/20 00:21:35;;;;;;;;;;;;;;;12.35;63.43;97180.16;30001;982;1877;-70
2021/10/20 00:22:06;;;;;;;;;;;;;;;12.38;63.55;97179.56;30001;983;1880;-68
2021/10/20 00:22:38;;;;;;;;;;;;;;;12.36;63.58;97176.34;30001;983;1876;-62
2021/10/20 00:23:09;;;;;;;;;;;;;;;12.34;63.55;97178.53;30001;983;1867;-70
2021/10/20 00:23:40;;;;;;;;;;;;;;;12.36;63.55;97171.69;30001;983;1867;-73
2021/10/20 00:24:11;;;;;;;;;;;;;;;12.34;63.77;97173.09;30001;983;1880;-73
2021/10/20 00:24:42;;;;;;;;;;;;;;;12.34;63.92;97170.38;30001;983;1876;-69
2021/10/20 00:25:13;;;;;;;;;;;;;;;12.36;63.49;97176.34;30001;983;1880;-66
2021/10/20 00:25:47;;;;;;;;;;;;;;;12.36;63.75;97170.88;30001;983;1863;-71
2021/10/20 00:26:18;;;;;;;;;;;;;;;12.35;63.80;97159.19;30001;983;1872;-68
2021/10/20 00:26:49;;;;;;;;;;;;;;;12.37;63.66;97167.88;30001;983;1876;-63
2021/10/20 00:27:20;;;;;;;;;;;;;;;12.39;63.68;97165.66;30001;982;1868;-66
2021/10/20 00:27:51;;;;;;;;;;;;;;;12.41;63.48;97168.91;30001;982;1854;-67
2021/10/20 00:28:22;;;;;;;;;;;;;;;12.39;63.18;97162.94;30001;982;1881;-71
2021/10/20 00:28:53;;;;;;;;;;;;;;;12.36;63.57;97170.88;30001;982;1877;-70
2021/10/20 00:29:23;;;;;;;;;;;;;;;12.33;63.55;97168.75;30001;983;1880;-69
2021/10/20 00:29:54;;;;;;;;;;;;;;;12.34;63.93;97162.22;30001;983;1876;-70
2021/10/20 00:30:25;;;;;;;;;;;;;;;12.33;63.58;97171.47;30001;983;1881;-69
2021/10/20 00:30:56;;;;;;;;;;;;;;;12.32;63.76;97165.22;30001;986;1876;-70
2021/10/20 00:31:27;;;;;;;;;;;;;;;12.35;63.48;97163.84;30001;983;1881;-72
2021/10/20 00:31:58;;;;;;;;;;;;;;;12.30;63.91;97163.91;30001;983;1863;-73
2021/10/20 00:32:29;;;;;;;;;;;;;;;12.29;63.79;97165.00;30001;983;1872;-67
2021/10/20 00:33:00;;;;;;;;;;;;;;;12.28;63.63;97158.75;30001;983;1876;-70
2021/10/20 00:33:31;;;;;;;;;;;;;;;12.26;63.94;97160.16;30001;983;1880;-70
2021/10/20 00:34:02;;;;;;;;;;;;;;;12.26;63.76;97157.44;30001;983;1876;-69
2021/10/20 00:34:33;;;;;;;;;;;;;;;12.25;64.05;97153.09;30001;982;1881;-72
2021/10/20 00:35:04;;;;;;;;;;;;;;;12.26;63.93;97160.16;30001;982;1876;-69
2021/10/20 00:35:35;;;;;;;;;;;;;;;12.21;64.12;97162.97;30001;982;1868;-72
2021/10/20 00:36:06;;;;;;;;;;;;;;;12.21;63.94;97160.25;30001;982;1855;-73
2021/10/20 00:36:37;;;;;;;;;;;;;;;12.21;64.10;97157.53;30001;982;1881;-73
2021/10/20 00:37:08;;;;;;;;;;;;;;;12.22;63.76;97153.69;30001;983;1876;-68
2021/10/20 00:37:38;;;;;;;;;;;;;;;12.25;63.76;97158.53;30001;983;1880;-73
2021/10/20 00:38:09;;;;;;;;;;;;;;;12.26;63.74;97160.16;30001;983;1863;-71
2021/10/20 00:38:40;;;;;;;;;;;;;;;12.22;63.95;97159.13;30001;983;1871;-69
2021/10/20 00:39:11;;;;;;;;;;;;;;;12.21;64.08;97166.50;30001;983;1876;-72
2021/10/20 00:39:42;;;;;;;;;;;;;;;12.19;63.78;97154.28;30001;983;1880;-71
2021/10/20 00:40:13;;;;;;;;;;;;;;;12.18;63.95;97155.38;30001;983;1876;-67
2021/10/20 00:40:44;;;;;;;;;;;;;;;12.17;63.86;97157.31;30001;983;1880;-70
2021/10/20 00:41:14;;;;;;;;;;;;;;;12.18;63.74;97153.47;30001;983;1876;-68
2021/10/20 00:41:46;;;;;;;;;;;;;;;12.21;63.72;97157.53;30001;972;1886;-69
2021/10/20 00:42:19;;;;;;;;;;;;;;;12.18;64.02;97156.19;30001;982;1868;-71
2021/10/20 00:42:50;;;;;;;;;;;;;;;12.17;63.82;97164.66;30001;982;1881;-71
2021/10/20 00:43:22;;;;;;;;;;;;;;;12.17;63.80;97157.31;30001;982;1876;-68
2021/10/20 00:43:53;;;;;;;;;;;;;;;12.15;64.24;97155.97;30001;982;1881;-68
2021/10/20 00:44:24;;;;;;;;;;;;;;;12.16;63.91;97149.44;30001;982;1877;-68
2021/10/20 00:44:57;;;;;;;;;;;;;;;12.18;64.12;97152.66;30001;983;1867;-61
2021/10/20 00:45:28;;;;;;;;;;;;;;;12.16;64.13;97152.16;30001;983;1867;-60
2021/10/20 00:45:59;;;;;;;;;;;;;;;12.19;64.05;97148.84;30001;983;1880;-70
2021/10/20 00:46:30;;;;;;;;;;;;;;;12.20;63.64;97150.47;30001;983;1863;-65
2021/10/20 00:47:01;;;;;;;;;;;;;;;12.19;63.92;97148.84;30001;983;1872;-67
2021/10/20 00:47:32;;;;;;;;;;;;;;;12.18;63.74;97139.06;30001;983;1863;-71
2021/10/20 00:48:04;;;;;;;;;;;;;;;12.18;63.53;97147.22;30001;983;1872;-69
2021/10/20 00:48:34;;;;;;;;;;;;;;;12.16;63.72;97152.97;30001;983;1876;-73
2021/10/20 00:49:05;;;;;;;;;;;;;;;12.18;63.85;97147.22;30001;982;1881;-69
2021/10/20 00:49:36;;;;;;;;;;;;;;;12.14;63.59;97146.19;30001;982;1876;-70
2021/10/20 00:50:09;;;;;;;;;;;;;;;12.15;64.19;97153.25;30001;982;1881;-70
2021/10/20 00:50:40;;;;;;;;;;;;;;;12.17;63.77;97143.69;30001;982;1876;-68
2021/10/20 00:51:11;;;;;;;;;;;;;;;12.15;63.96;97142.37;30001;982;1881;-71
2021/10/20 00:51:42;;;;;;;;;;;;;;;12.15;63.66;97134.22;30001;982;1877;-66
2021/10/20 00:52:13;;;;;;;;;;;;;;;12.15;63.89;97140.47;30001;983;1880;-70
2021/10/20 00:52:44;;;;;;;;;;;;;;;12.12;63.74;97143.81;30001;983;1863;-69
2021/10/20 00:53:15;;;;;;;;;;;;;;;12.13;64.07;97139.19;30001;965;1789;-63
2021/10/20 00:53:46;;;;;;;;;;;;;;;12.07;63.77;97141.97;30001;983;1876;-68
2021/10/20 00:54:17;;;;;;;;;;;;;;;12.04;64.07;97137.13;30001;983;1880;-74
2021/10/20 00:54:50;;;;;;;;;;;;;;;12.06;63.76;97139.53;30001;983;1876;-65
2021/10/20 00:55:22;;;;;;;;;;;;;;;12.10;63.94;97139.75;30001;983;1880;-72
2021/10/20 00:55:53;;;;;;;;;;;;;;;12.12;64.02;97137.56;30001;983;1863;-66
2021/10/20 00:56:25;;;;;;;;;;;;;;;12.11;63.76;97136.75;30001;982;1872;-71
2021/10/20 00:56:56;;;;;;;;;;;;;;;12.08;63.68;97138.16;30001;982;1876;-69
2021/10/20 00:57:28;;;;;;;;;;;;;;;12.07;63.87;97131.09;30001;982;1881;-70
2021/10/20 00:57:59;;;;;;;;;;;;;;;12.06;64.03;97140.34;30001;982;1876;-72
2021/10/20 00:58:30;;;;;;;;;;;;;;;12.07;63.98;97136.53;30001;982;1868;-71
2021/10/20 00:59:02;;;;;;;;;;;;;;;12.04;64.02;97136.31;30001;982;1868;-71
2021/10/20 00:59:33;;;;;;;;;;;;;;;12.05;63.80;97146.09;30001;982;1881;-70
2021/10/20 01:00:06;;;;;;;;;;;;;;;12.03;64.11;97137.41;30001;983;1876;-74
2021/10/20 01:00:37;;;;;;;;;;;;;;;12.05;64.08;97133.31;30001;983;1880;-69
2021/10/20 01:01:08;;;;;;;;;;;;;;;12.08;63.63;97132.72;30001;983;1876;-67
2021/10/20 01:01:38;;;;;;;;;;;;;;;12.09;63.89;97138.97;30001;983;1867;-60
2021/10/20 01:02:09;;;;;;;;;;;;;;;12.09;63.55;97130.81;30001;983;1867;-71
2021/10/20 01:02:40;;;;;;;;;;;;;;;12.07;63.64;97133.81;30001;983;1880;-71
2021/10/20 01:03:12;;;;;;;;;;;;;;;12.07;63.39;97133.00;30001;983;1876;-73
2021/10/20 01:03:44;;;;;;;;;;;;;;;12.06;63.40;97134.91;30001;983;1881;-69
2021/10/20 01:04:14;;;;;;;;;;;;;;;12.04;63.81;97131.69;30001;982;1876;-72
2021/10/20 01:04:47;;;;;;;;;;;;;;;12.06;63.36;97129.47;30001;982;1881;-63
2021/10/20 01:05:18;;;;;;;;;;;;;;;12.10;63.54;97128.88;30001;982;1876;-70
2021/10/20 01:05:49;;;;;;;;;;;;;;;12.11;63.51;97130.50;30001;982;1881;-67
2021/10/20 01:06:20;;;;;;;;;;;;;;;12.11;63.32;97125.06;30001;982;1877;-72
2021/10/20 01:06:52;;;;;;;;;;;;;;;12.06;63.51;97129.47;30001;982;1868;-71
2021/10/20 01:07:23;;;;;;;;;;;;;;;12.05;63.45;97122.41;30001;983;1867;-71
2021/10/20 01:07:54;;;;;;;;;;;;;;;12.10;63.09;97118.81;30001;983;1880;-61
2021/10/20 01:08:25;;;;;;;;;;;;;;;12.07;63.12;97127.56;30001;983;1876;-67
2021/10/20 01:08:55;;;;;;;;;;;;;;;12.10;63.00;97113.37;30001;983;1880;-66
2021/10/20 01:09:26;;;;;;;;;;;;;;;12.08;62.57;97116.38;30001;983;1876;-70
2021/10/20 01:09:58;;;;;;;;;;;;;;;12.08;62.90;97121.81;30001;983;1867;-69
2021/10/20 01:10:28;;;;;;;;;;;;;;;12.06;62.91;97115.06;30001;983;1867;-71
2021/10/20 01:10:59;;;;;;;;;;;;;;;12.07;63.31;97119.41;30001;983;1881;-68
2021/10/20 01:11:30;;;;;;;;;;;;;;;12.10;62.54;97118.00;30001;982;1876;-68
2021/10/20 01:12:01;;;;;;;;;;;;;;;12.17;62.71;97118.41;30001;982;1881;-72
2021/10/20 01:12:33;;;;;;;;;;;;;;;12.21;62.35;97105.84;30001;982;1877;-71
2021/10/20 01:13:04;;;;;;;;;;;;;;;12.20;62.54;97112.37;30001;982;1881;-69
2021/10/20 01:13:35;;;;;;;;;;;;;;;12.17;62.51;97112.97;30001;982;1877;-68
2021/10/20 01:14:06;;;;;;;;;;;;;;;12.17;62.61;97118.41;30001;982;1881;-70
2021/10/20 01:14:36;;;;;;;;;;;;;;;12.14;62.90;97119.00;30001;982;1877;-71
2021/10/20 01:15:09;;;;;;;;;;;;;;;12.12;63.07;97113.88;30001;983;1867;-72
2021/10/20 01:15:40;;;;;;;;;;;;;;;12.11;62.86;97114.19;30001;983;1867;-69
2021/10/20 01:16:12;;;;;;;;;;;;;;;12.15;62.45;97109.75;30001;983;1880;-70
2021/10/20 01:16:43;;;;;;;;;;;;;;;12.16;62.47;97105.91;30001;983;1876;-70
2021/10/20 01:17:14;;;;;;;;;;;;;;;12.15;62.37;97120.63;30001;983;1867;-71
2021/10/20 01:17:46;;;;;;;;;;;;;;;12.14;62.00;97106.22;30001;983;1868;-71
2021/10/20 01:18:17;;;;;;;;;;;;;;;12.15;62.46;97107.00;30001;983;1881;-68
2021/10/20 01:18:48;;;;;;;;;;;;;;;12.14;62.31;97108.12;30001;983;1863;-71
2021/10/20 01:19:19;;;;;;;;;;;;;;;12.16;61.73;97103.19;30001;982;1872;-69
2021/10/20 01:19:50;;;;;;;;;;;;;;;12.19;62.14;97099.88;30001;982;1877;-68
2021/10/20 01:20:23;;;;;;;;;;;;;;;12.19;61.77;97099.88;30001;982;1868;-70
2021/10/20 01:20:57;;;;;;;;;;;;;;;12.17;61.64;97099.38;30001;982;1869;-70
2021/10/20 01:21:28;;;;;;;;;;;;;;;12.18;61.81;97098.25;30001;983;1880;-70
2021/10/20 01:21:59;;;;;;;;;;;;;;;12.17;61.62;97097.47;30001;983;1876;-69
2021/10/20 01:22:30;;;;;;;;;;;;;;;12.21;61.59;97094.94;30001;983;1880;-65
2021/10/20 01:23:01;;;;;;;;;;;;;;;12.28;60.85;97093.47;30001;983;1876;-70
2021/10/20 01:23:32;;;;;;;;;;;;;;;12.28;61.01;97093.47;30001;983;1880;-69
2021/10/20 01:24:03;;;;;;;;;;;;;;;12.28;61.52;97092.66;30001;983;1876;-69
2021/10/20 01:24:35;;;;;;;;;;;;;;;12.31;60.73;97092.88;30001;983;1867;-70
2021/10/20 01:25:06;;;;;;;;;;;;;;;12.34;60.88;97086.03;30001;983;1868;-71
2021/10/20 01:25:37;;;;;;;;;;;;;;;12.36;60.89;97086.53;30001;983;1881;-68
2021/10/20 01:26:08;;;;;;;;;;;;;;;12.36;60.80;97090.06;30001;983;1876;-68
2021/10/20 01:26:40;;;;;;;;;;;;;;;12.37;60.77;97085.44;30001;982;1868;-71
2021/10/20 01:27:10;;;;;;;;;;;;;;;12.40;61.03;97082.13;30001;982;1868;-72
2021/10/20 01:27:42;;;;;;;;;;;;;;;12.38;60.89;97084.31;30001;982;1881;-69
2021/10/20 01:28:13;;;;;;;;;;;;;;;12.34;61.36;97081.37;30001;982;1877;-70
2021/10/20 01:28:44;;;;;;;;;;;;;;;12.29;61.23;97081.47;30001;982;1881;-70
2021/10/20 01:29:15;;;;;;;;;;;;;;;12.27;61.35;97085.59;30001;983;1876;-69
2021/10/20 01:29:46;;;;;;;;;;;;;;;12.24;61.55;97078.84;30001;983;1880;-66
2021/10/20 01:30:17;;;;;;;;;;;;;;;12.24;61.58;97081.56;30001;983;1876;-74
2021/10/20 01:30:48;;;;;;;;;;;;;;;12.24;61.72;97080.75;30001;983;1867;-73
2021/10/20 01:31:19;;;;;;;;;;;;;;;12.21;61.90;97075.91;30001;983;1867;-73
2021/10/20 01:31:52;;;;;;;;;;;;;;;12.20;61.59;97080.53;30001;983;1880;-70
2021/10/20 01:32:23;;;;;;;;;;;;;;;12.19;61.45;97072.69;30001;983;1876;-68
2021/10/20 01:32:53;;;;;;;;;;;;;;;12.20;61.25;97074.28;30001;983;1880;-70
2021/10/20 01:33:24;;;;;;;;;;;;;;;12.21;61.57;97073.19;30001;983;1876;-69
2021/10/20 01:33:55;;;;;;;;;;;;;;;12.21;61.70;97075.91;30001;983;1881;-70
2021/10/20 01:34:26;;;;;;;;;;;;;;;12.22;60.97;97074.81;30001;982;1876;-68
2021/10/20 01:34:57;;;;;;;;;;;;;;;12.21;61.15;97071.28;30001;982;1881;-60
2021/10/20 01:35:28;;;;;;;;;;;;;;;12.20;61.31;97072.38;30001;982;1876;-60
2021/10/20 01:35:58;;;;;;;;;;;;;;;12.19;61.44;97070.75;30001;982;1868;-69
2021/10/20 01:36:29;;;;;;;;;;;;;;;12.19;61.75;97069.97;30001;983;1867;-68
2021/10/20 01:37:01;;;;;;;;;;;;;;;12.18;61.84;97071.06;30001;983;1880;-66
2021/10/20 01:37:33;;;;;;;;;;;;;;;12.19;61.20;97072.69;30001;983;1876;-69
2021/10/20 01:38:04;;;;;;;;;;;;;;;12.19;61.39;97068.03;30001;983;1881;-73
2021/10/20 01:38:35;;;;;;;;;;;;;;;12.20;61.30;97063.41;30001;983;1876;-70
2021/10/20 01:39:06;;;;;;;;;;;;;;;12.22;61.54;97072.88;30001;983;1867;-68
2021/10/20 01:39:37;;;;;;;;;;;;;;;12.22;61.67;97061.19;30001;983;1868;-69
2021/10/20 01:40:09;;;;;;;;;;;;;;;12.21;61.50;97065.03;30001;983;1881;-69
2021/10/20 01:40:40;;;;;;;;;;;;;;;12.21;61.52;97065.03;30001;983;1876;-71
2021/10/20 01:41:11;;;;;;;;;;;;;;;12.24;61.64;97072.59;30001;982;1881;-68
2021/10/20 01:41:42;;;;;;;;;;;;;;;12.24;61.49;97067.16;30001;982;1877;-68
2021/10/20 01:42:12;;;;;;;;;;;;;;;12.26;61.66;97064.94;30001;982;1868;-69
2021/10/20 01:42:43;;;;;;;;;;;;;;;12.30;60.42;97060.53;30001;982;1868;-67
2021/10/20 01:43:14;;;;;;;;;;;;;;;12.28;60.36;97057.28;30001;982;1881;-72
2021/10/20 01:43:48;;;;;;;;;;;;;;;12.31;60.91;97064.84;30001;982;1877;-68
2021/10/20 01:44:19;;;;;;;;;;;;;;;12.28;60.69;97060.81;30001;983;1880;-68
2021/10/20 01:44:50;;;;;;;;;;;;;;;12.31;60.90;97056.69;30001;983;1876;-69
2021/10/20 01:45:21;;;;;;;;;;;;;;;12.29;61.18;97059.72;30001;983;1880;-67
2021/10/20 01:45:52;;;;;;;;;;;;;;;12.31;60.59;97053.97;30001;986;1876;-68
2021/10/20 01:46:23;;;;;;;;;;;;;;;12.34;60.88;97056.09;30001;983;1867;-67
2021/10/20 01:46:54;;;;;;;;;;;;;;;12.33;60.54;97051.75;30001;983;1854;-63
2021/10/20 01:47:24;;;;;;;;;;;;;;;12.35;60.34;97050.34;30001;983;1880;-69
2021/10/20 01:47:55;;;;;;;;;;;;;;;12.37;60.44;97039.16;30001;983;1876;-72
2021/10/20 01:48:26;;;;;;;;;;;;;;;12.44;59.72;97047.75;30001;985;1881;-72
2021/10/20 01:48:57;;;;;;;;;;;;;;;12.45;59.76;97048.56;30001;982;1876;-65
2021/10/20 01:49:27;;;;;;;;;;;;;;;12.44;60.10;97042.31;30001;982;1881;-68
2021/10/20 01:49:58;;;;;;;;;;;;;;;12.44;60.14;97050.47;30001;982;1863;-68
2021/10/20 01:50:29;;;;;;;;;;;;;;;12.43;60.07;97048.06;30001;982;1872;-74
2021/10/20 01:51:00;;;;;;;;;;;;;;;12.45;59.63;97043.94;30001;982;1877;-68
2021/10/20 01:51:31;;;;;;;;;;;;;;;12.45;60.35;97046.66;30001;982;1881;-68
2021/10/20 01:52:02;;;;;;;;;;;;;;;12.43;60.40;97040.69;30001;983;1876;-71
2021/10/20 01:52:34;;;;;;;;;;;;;;;12.42;60.63;97044.53;30001;983;1880;-68
2021/10/20 01:53:05;;;;;;;;;;;;;;;12.39;60.75;97050.56;30001;983;1876;-69
2021/10/20 01:53:36;;;;;;;;;;;;;;;12.36;60.75;97038.38;30001;983;1867;-74
2021/10/20 01:54:07;;;;;;;;;;;;;;;12.38;60.56;97040.78;30001;983;1867;-70
2021/10/20 01:54:38;;;;;;;;;;;;;;;12.39;60.56;97028.78;30001;983;1880;-71
2021/10/20 01:55:13;;;;;;;;;;;;;;;12.40;60.47;97035.84;30001;983;1876;-69
2021/10/20 01:55:44;;;;;;;;;;;;;;;12.40;60.38;97033.12;30001;983;1881;-71
2021/10/20 01:56:15;;;;;;;;;;;;;;;12.44;59.87;97025.97;30001;982;1863;-64
2021/10/20 01:56:47;;;;;;;;;;;;;;;12.43;59.69;97029.81;30001;982;1872;-73
2021/10/20 01:57:18;;;;;;;;;;;;;;;12.44;59.86;97028.72;30001;982;1876;-71
2021/10/20 01:57:49;;;;;;;;;;;;;;;12.43;60.03;97035.25;30001;982;1868;-69
2021/10/20 01:58:19;;;;;;;;;;;;;;;12.41;60.33;97032.03;30001;982;1868;-70
2021/10/20 01:58:50;;;;;;;;;;;;;;;12.40;60.43;97038.56;30001;982;1881;-61
2021/10/20 01:59:21;;;;;;;;;;;;;;;12.43;59.75;97029.00;30001;983;1876;-71
2021/10/20 01:59:52;;;;;;;;;;;;;;;12.42;59.95;97033.63;30001;983;1880;-69
2021/10/20 02:00:23;;;;;;;;;;;;;;;12.37;59.85;97029.09;30001;983;1876;-72
2021/10/20 02:00:54;;;;;;;;;;;;;;;12.36;60.24;97030.19;30001;983;1880;-63
2021/10/20 02:01:24;;;;;;;;;;;;;;;12.36;60.09;97023.94;30001;983;1863;-64
2021/10/20 02:01:55;;;;;;;;;;;;;;;12.36;60.03;97018.50;30001;983;1872;-68
2021/10/20 02:02:26;;;;;;;;;;;;;;;12.35;60.06;97025.06;30001;983;1876;-70
2021/10/20 02:02:57;;;;;;;;;;;;;;;12.34;60.14;97026.16;30001;983;1881;-66
2021/10/20 02:03:28;;;;;;;;;;;;;;;12.36;60.17;97021.22;30001;982;1876;-70
2021/10/20 02:03:58;;;;;;;;;;;;;;;12.36;59.96;97015.78;30001;982;1881;-70
2021/10/20 02:04:29;;;;;;;;;;;;;;;12.35;60.12;97028.59;30001;985;1876;-71
2021/10/20 02:05:00;;;;;;;;;;;;;;;12.40;59.85;97022.25;30001;982;1868;-71
2021/10/20 02:05:34;;;;;;;;;;;;;;;12.40;58.99;97024.97;30001;982;1868;-72
2021/10/20 02:06:10;;;;;;;;;;;;;;;12.42;58.98;97020.03;30001;982;1881;-68
2021/10/20 02:06:43;;;;;;;;;;;;;;;12.46;58.72;97018.31;30001;983;1863;-67
2021/10/20 02:07:13;;;;;;;;;;;;;;;12.44;59.12;97011.56;30001;983;1871;-68
2021/10/20 02:07:44;;;;;;;;;;;;;;;12.42;58.88;97017.31;30001;983;1862;-69
2021/10/20 02:08:15;;;;;;;;;;;;;;;12.44;59.38;97012.38;30001;983;1871;-72
2021/10/20 02:08:46;;;;;;;;;;;;;;;12.45;59.20;97018.63;30001;961;1898;-68
2021/10/20 02:09:17;;;;;;;;;;;;;;;12.44;58.88;97014.28;30001;983;1880;-70
2021/10/20 02:09:48;;;;;;;;;;;;;;;12.41;59.06;97015.69;30001;983;1876;-73
2021/10/20 02:10:19;;;;;;;;;;;;;;;12.42;59.18;97011.88;30001;983;1868;-74
2021/10/20 02:10:50;;;;;;;;;;;;;;;12.47;59.11;97011.78;30001;983;1854;-67
2021/10/20 02:11:22;;;;;;;;;;;;;;;12.47;59.61;97014.50;30001;982;1881;-70
2021/10/20 02:11:52;;;;;;;;;;;;;;;12.45;59.67;97013.19;30001;982;1863;-69
2021/10/20 02:12:23;;;;;;;;;;;;;;;12.45;59.51;97011.28;30001;982;1872;-69
2021/10/20 02:12:54;;;;;;;;;;;;;;;12.45;59.30;97008.53;30001;982;1877;-70
2021/10/20 02:13:25;;;;;;;;;;;;;;;12.45;59.43;97005.81;30001;983;1880;-73
2021/10/20 02:13:56;;;;;;;;;;;;;;;12.51;59.26;97009.22;30001;983;1876;-70
2021/10/20 02:14:27;;;;;;;;;;;;;;;12.51;58.76;97007.31;30001;983;1880;-71
2021/10/20 02:14:58;;;;;;;;;;;;;;;12.48;59.19;97005.19;30001;983;1876;-68
2021/10/20 02:15:29;;;;;;;;;;;;;;;12.46;59.41;97007.44;30001;983;1880;-68
2021/10/20 02:15:59;;;;;;;;;;;;;;;12.43;59.55;97008.03;30001;983;1876;-60
2021/10/20 02:16:31;;;;;;;;;;;;;;;12.43;59.23;96997.16;30001;983;1880;-60
2021/10/20 02:17:01;;;;;;;;;;;;;;;12.45;59.29;97005.81;30001;983;1863;-71
2021/10/20 02:17:33;;;;;;;;;;;;;;;12.46;59.54;97007.44;30001;983;1872;-67
2021/10/20 02:18:03;;;;;;;;;;;;;;;12.43;59.50;97008.03;30001;983;1877;-73
2021/10/20 02:18:34;;;;;;;;;;;;;;;12.43;59.71;97002.59;30001;982;1881;-70
2021/10/20 02:19:06;;;;;;;;;;;;;;;12.43;59.61;96997.16;30001;982;1877;-71
2021/10/20 02:19:37;;;;;;;;;;;;;;;12.44;59.11;96993.31;30001;982;1881;-70
2021/10/20 02:20:10;;;;;;;;;;;;;;;12.43;59.22;96994.44;30001;982;1877;-69
2021/10/20 02:20:41;;;;;;;;;;;;;;;12.42;59.38;96992.81;30001;982;1881;-59
2021/10/20 02:21:11;;;;;;;;;;;;;;;12.46;58.93;96993.03;30001;983;1876;-75
2021/10/20 02:21:42;;;;;;;;;;;;;;;12.46;58.92;96991.13;30001;983;1867;-70
2021/10/20 02:22:13;;;;;;;;;;;;;;;12.44;58.65;96987.06;30001;983;1867;-69
2021/10/20 02:22:45;;;;;;;;;;;;;;;12.45;59.28;96989.50;30001;983;1867;-67
2021/10/20 02:23:17;;;;;;;;;;;;;;;12.43;59.19;96989.00;30001;983;1867;-66
2021/10/20 02:23:48;;;;;;;;;;;;;;;12.42;59.14;96992.81;30001;983;1881;-70
2021/10/20 02:24:19;;;;;;;;;;;;;;;12.41;59.09;96993.94;30001;983;1876;-69
2021/10/20 02:24:50;;;;;;;;;;;;;;;12.48;58.99;96983.41;30001;983;1880;-64
2021/10/20 02:25:22;;;;;;;;;;;;;;;12.48;58.99;96993.50;30001;983;1876;-60
2021/10/20 02:25:53;;;;;;;;;;;;;;;12.46;59.11;96991.13;30001;983;1881;-69
2021/10/20 02:26:24;;;;;;;;;;;;;;;12.43;59.17;96989.00;30001;982;1876;-63
2021/10/20 02:26:55;;;;;;;;;;;;;;;12.40;59.11;96982.25;30001;982;1881;-69
2021/10/20 02:27:25;;;;;;;;;;;;;;;12.37;58.98;96993.72;30001;982;1863;-70
2021/10/20 02:27:56;;;;;;;;;;;;;;;12.36;59.72;96980.41;30001;982;1770;-73
2021/10/20 02:28:28;;;;;;;;;;;;;;;12.37;59.02;96982.03;30001;982;1877;-70
2021/10/20 02:28:59;;;;;;;;;;;;;;;12.34;59.09;96983.44;30001;983;1880;-70
2021/10/20 02:29:31;;;;;;;;;;;;;;;12.33;59.46;96981.81;30001;983;1863;-73
2021/10/20 02:30:04;;;;;;;;;;;;;;;12.37;59.35;96984.75;30001;983;1858;-73
2021/10/20 02:30:35;;;;;;;;;;;;;;;12.38;59.08;96979.00;30001;983;1876;-69
2021/10/20 02:31:05;;;;;;;;;;;;;;;12.36;59.17;96975.78;30001;983;1880;-61
2021/10/20 02:31:36;;;;;;;;;;;;;;;12.35;59.19;96985.06;30001;983;1876;-70
2021/10/20 02:32:08;;;;;;;;;;;;;;;12.38;58.85;96983.66;30001;983;1880;-70
2021/10/20 02:32:39;;;;;;;;;;;;;;;12.35;58.96;96985.06;30001;983;1863;-71
2021/10/20 02:33:10;;;;;;;;;;;;;;;12.34;59.02;96983.44;30001;983;1872;-71
2021/10/20 02:33:41;;;;;;;;;;;;;;;12.30;59.09;96982.44;30001;982;1876;-69
2021/10/20 02:34:16;;;;;;;;;;;;;;;12.28;59.59;96979.19;30001;982;1881;-71
2021/10/20 02:34:47;;;;;;;;;;;;;;;12.32;59.24;96985.66;30001;982;1876;-67
2021/10/20 02:35:19;;;;;;;;;;;;;;;12.32;59.39;96990.28;30001;982;1881;-70
2021/10/20 02:35:50;;;;;;;;;;;;;;;12.28;59.40;96986.56;30001;982;1863;-74
2021/10/20 02:36:21;;;;;;;;;;;;;;;12.27;59.48;96982.22;30001;983;1872;-68
2021/10/20 02:36:52;;;;;;;;;;;;;;;12.22;59.86;96985.03;30001;983;1876;-69
2021/10/20 02:37:23;;;;;;;;;;;;;;;12.18;60.18;96994.91;30001;983;1880;-70
2021/10/20 02:37:53;;;;;;;;;;;;;;;12.18;59.64;96989.47;30001;983;1876;-73
2021/10/20 02:38:24;;;;;;;;;;;;;;;12.15;59.56;96990.84;30001;983;1880;-72
2021/10/20 02:38:55;;;;;;;;;;;;;;;12.14;59.92;96993.88;30001;983;1876;-60
2021/10/20 02:39:26;;;;;;;;;;;;;;;12.12;60.27;96990.69;30001;983;1880;-74
2021/10/20 02:39:57;;;;;;;;;;;;;;;12.10;60.03;96988.25;30001;983;1876;-69
2021/10/20 02:40:28;;;;;;;;;;;;;;;12.09;60.31;96994.81;30001;983;1881;-73
2021/10/20 02:40:59;;;;;;;;;;;;;;;12.08;60.38;96991.28;30001;983;1863;-75
2021/10/20 02:41:30;;;;;;;;;;;;;;;12.08;60.16;96999.44;30001;982;1872;-73
2021/10/20 02:42:02;;;;;;;;;;;;;;;12.11;59.75;96995.31;30001;982;1876;-71
2021/10/20 02:42:33;;;;;;;;;;;;;;;12.17;59.34;96982.41;30001;982;1881;-70
2021/10/20 02:43:04;;;;;;;;;;;;;;;12.17;59.07;96985.94;30001;982;1876;-74
2021/10/20 02:43:36;;;;;;;;;;;;;;;12.21;58.82;96988.84;30001;982;1868;-60
2021/10/20 02:44:07;;;;;;;;;;;;;;;12.22;58.77;96979.59;30001;983;1867;-74
2021/10/20 02:44:38;;;;;;;;;;;;;;;12.25;58.88;96985.25;30001;983;1880;-70
2021/10/20 02:45:13;;;;;;;;;;;;;;;12.24;58.59;96986.34;30001;983;1876;-74
2021/10/20 02:45:44;;;;;;;;;;;;;;;12.25;58.44;96984.44;30001;983;1881;-70
2021/10/20 02:46:15;;;;;;;;;;;;;;;12.24;58.20;96977.38;30001;983;1876;-69
2021/10/20 02:46:46;;;;;;;;;;;;;;;12.23;58.50;96983.94;30001;983;1867;-70